Time;durP1;ratioP1;P1;durP2;ratioP2;P2;SDS_P1;SDS_P2;PMS_P1;PMS_P2;Temp;Humidity;BMP_temperature;BMP_pressure;BME280_temperature;BME280_humidity;BME280_pressure;Samples;Min_cycle;Max_cycle;Signal;HPM_P1;HPM_P2
2024/01/12 00:01:19;;;;;;;0.00;0.00;;;;;;;;;;5050925;28;20025;-90
2024/01/12 00:03:44;;;;;;;0.00;0.00;;;;;;;;;;5067165;28;20029;-93
2024/01/12 00:06:10;;;;;;;0.00;0.00;;;;;;;;;;5013898;28;20029;-92
2024/01/12 00:08:39;;;;;;;0.00;0.00;;;;;;;;;;5048827;28;20049;-92
2024/01/12 00:11:08;;;;;;;0.00;0.00;;;;;;;;;;5012807;28;20064;-89
2024/01/12 00:13:33;;;;;;;0.00;0.00;;;;;;;;;;5031062;28;20044;-91
2024/01/12 00:16:03;;;;;;;0.00;0.00;;;;;;;;;;5031484;28;20055;-89
2024/01/12 00:18:31;;;;;;;0.00;0.00;;;;;;;;;;5048156;28;20528;-90
2024/01/12 00:20:57;;;;;;;0.00;0.00;;;;;;;;;;5047591;28;20025;-91
2024/01/12 00:23:22;;;;;;;0.00;0.00;;;;;;;;;;5048164;28;20500;-90
2024/01/12 00:25:48;;;;;;;0.00;0.00;;;;;;;;;;5031422;28;20029;-92
2024/01/12 00:28:16;;;;;;;0.00;0.00;;;;;;;;;;5051676;28;20029;-92
2024/01/12 00:30:41;;;;;;;0.00;0.00;;;;;;;;;;5057697;28;20052;-90
2024/01/12 00:33:07;;;;;;;0.00;0.00;;;;;;;;;;5058672;28;20044;-91
2024/01/12 00:35:33;;;;;;;0.00;0.00;;;;;;;;;;5040923;28;20078;-89
2024/01/12 00:37:58;;;;;;;0.00;0.00;;;;;;;;;;5056212;28;20017;-91
2024/01/12 00:40:24;;;;;;;0.00;0.00;;;;;;;;;;5050208;28;20033;-91
2024/01/12 00:42:52;;;;;;;0.00;0.00;;;;;;;;;;5047773;28;20029;-92
2024/01/12 00:45:17;;;;;;;0.00;0.00;;;;;;;;;;5049105;28;20029;-91
2024/01/12 00:47:43;;;;;;;0.00;0.00;;;;;;;;;;5047904;28;20096;-91
2024/01/12 00:50:09;;;;;;;0.00;0.00;;;;;;;;;;5047962;28;21884;-92
2024/01/12 00:52:35;;;;;;;0.00;0.00;;;;;;;;;;5048590;28;20025;-90
2024/01/12 00:55:00;;;;;;;0.00;0.00;;;;;;;;;;5031754;28;20040;-92
2024/01/12 00:57:26;;;;;;;0.00;0.00;;;;;;;;;;5048722;28;20032;-92
2024/01/12 00:59:51;;;;;;;0.00;0.00;;;;;;;;;;5050323;28;20037;-92
2024/01/12 01:02:17;;;;;;;0.00;0.00;;;;;;;;;;5033309;28;20025;-91
2024/01/12 01:04:42;;;;;;;0.00;0.00;;;;;;;;;;5049672;28;20021;-90
2024/01/12 01:07:08;;;;;;;0.00;0.00;;;;;;;;;;5049518;28;20044;-92
2024/01/12 01:09:34;;;;;;;0.00;0.00;;;;;;;;;;5028797;28;20100;-91
2024/01/12 01:12:01;;;;;;;0.00;0.00;;;;;;;;;;5025810;28;20013;-89
2024/01/12 01:14:27;;;;;;;0.00;0.00;;;;;;;;;;5028164;28;20030;-89
2024/01/12 01:16:53;;;;;;;0.00;0.00;;;;;;;;;;5012634;28;20088;-91
2024/01/12 01:19:18;;;;;;;0.00;0.00;;;;;;;;;;5051719;28;20100;-90
2024/01/12 01:21:44;;;;;;;0.00;0.00;;;;;;;;;;5073231;28;20052;-90
2024/01/12 01:24:09;;;;;;;0.00;0.00;;;;;;;;;;5071725;28;20033;-92
2024/01/12 01:26:35;;;;;;;0.00;0.00;;;;;;;;;;5053681;28;20032;-93
2024/01/12 01:29:00;;;;;;;0.00;0.00;;;;;;;;;;5071552;28;20024;-92
2024/01/12 01:31:26;;;;;;;0.00;0.00;;;;;;;;;;5056244;28;20041;-93
2024/01/12 01:33:51;;;;;;;0.00;0.00;;;;;;;;;;5065507;28;20036;-89
2024/01/12 01:36:17;;;;;;;0.00;0.00;;;;;;;;;;5050926;28;20040;-91
2024/01/12 01:38:42;;;;;;;0.00;0.00;;;;;;;;;;5050527;28;20040;-90
2024/01/12 01:41:08;;;;;;;0.00;0.00;;;;;;;;;;5069826;28;20036;-92
2024/01/12 01:43:34;;;;;;;0.00;0.00;;;;;;;;;;5053509;28;20029;-90
2024/01/12 01:46:00;;;;;;;0.00;0.00;;;;;;;;;;5053701;28;20012;-89
2024/01/12 01:48:25;;;;;;;0.00;0.00;;;;;;;;;;5035854;28;20083;-89
2024/01/12 01:50:53;;;;;;;0.00;0.00;;;;;;;;;;5050975;28;20037;-90
2024/01/12 01:53:19;;;;;;;0.00;0.00;;;;;;;;;;5032530;28;20040;-91
2024/01/12 01:55:44;;;;;;;0.00;0.00;;;;;;;;;;5032448;28;20024;-91
2024/01/12 01:58:10;;;;;;;0.00;0.00;;;;;;;;;;5066509;28;20029;-89
2024/01/12 02:00:36;;;;;;;0.00;0.00;;;;;;;;;;5049357;28;20054;-90
2024/01/12 02:03:01;;;;;;;0.00;0.00;;;;;;;;;;5032827;28;20017;-90
2024/01/12 02:05:29;;;;;;;0.00;0.00;;;;;;;;;;5034116;28;20115;-89
2024/01/12 02:07:57;;;;;;;0.00;0.00;;;;;;;;;;5055045;28;20025;-91
2024/01/12 02:10:23;;;;;;;0.00;0.00;;;;;;;;;;5071447;28;20028;-88
2024/01/12 02:12:48;;;;;;;0.00;0.00;;;;;;;;;;5089200;28;20042;-88
2024/01/12 02:15:14;;;;;;;0.00;0.00;;;;;;;;;;5074185;28;20019;-90
2024/01/12 02:17:40;;;;;;;0.00;0.00;;;;;;;;;;5073338;28;20020;-91
2024/01/12 02:20:06;;;;;;;0.00;0.00;;;;;;;;;;5074045;28;20035;-92
2024/01/12 02:22:32;;;;;;;0.00;0.00;;;;;;;;;;5033442;28;20029;-88
2024/01/12 02:24:58;;;;;;;0.00;0.00;;;;;;;;;;5016001;28;20047;-91
2024/01/12 02:27:24;;;;;;;0.00;0.00;;;;;;;;;;5034636;28;20039;-90
2024/01/12 02:29:50;;;;;;;0.00;0.00;;;;;;;;;;5050902;28;20404;-92
2024/01/12 02:32:16;;;;;;;0.00;0.00;;;;;;;;;;5017389;28;20029;-90
2024/01/12 02:34:41;;;;;;;0.00;0.00;;;;;;;;;;5029066;28;20025;-90
2024/01/12 02:37:07;;;;;;;0.00;0.00;;;;;;;;;;5015425;28;20025;-90
2024/01/12 02:39:32;;;;;;;0.00;0.00;;;;;;;;;;5030319;28;20032;-89
2024/01/12 02:41:58;;;;;;;0.00;0.00;;;;;;;;;;5030693;28;20048;-90
2024/01/12 02:44:24;;;;;;;0.00;0.00;;;;;;;;;;5015612;28;20044;-89
2024/01/12 02:46:49;;;;;;;0.00;0.00;;;;;;;;;;5051356;28;20040;-90
2024/01/12 02:49:15;;;;;;;0.00;0.00;;;;;;;;;;5048605;28;20405;-91
2024/01/12 02:51:40;;;;;;;0.00;0.00;;;;;;;;;;5066118;28;20124;-89
2024/01/12 02:54:06;;;;;;;0.00;0.00;;;;;;;;;;5049349;28;20089;-90
2024/01/12 02:56:32;;;;;;;0.00;0.00;;;;;;;;;;5012476;28;20430;-87
2024/01/12 02:58:58;;;;;;;0.00;0.00;;;;;;;;;;5031500;28;20033;-88
2024/01/12 03:01:24;;;;;;;0.00;0.00;;;;;;;;;;5065208;28;20033;-90
2024/01/12 03:03:49;;;;;;;0.00;0.00;;;;;;;;;;5048113;28;20032;-91
2024/01/12 03:06:15;;;;;;;0.00;0.00;;;;;;;;;;5047950;28;20058;-90
2024/01/12 03:08:40;;;;;;;0.00;0.00;;;;;;;;;;5050260;28;20040;-91
2024/01/12 03:11:06;;;;;;;0.00;0.00;;;;;;;;;;5034407;28;20068;-90
2024/01/12 03:13:33;;;;;;;0.00;0.00;;;;;;;;;;5034639;28;20029;-89
2024/01/12 03:15:59;;;;;;;0.00;0.00;;;;;;;;;;5012937;28;20029;-91
2024/01/12 03:18:25;;;;;;;0.00;0.00;;;;;;;;;;5043353;28;20107;-89
2024/01/12 03:20:50;;;;;;;0.00;0.00;;;;;;;;;;5013962;28;20032;-91
2024/01/12 03:23:16;;;;;;;0.00;0.00;;;;;;;;;;5014268;28;20021;-91
2024/01/12 03:25:41;;;;;;;0.00;0.00;;;;;;;;;;5029039;28;20044;-89
2024/01/12 03:28:08;;;;;;;0.00;0.00;;;;;;;;;;5025347;28;20048;-89
2024/01/12 03:30:34;;;;;;;0.00;0.00;;;;;;;;;;5045723;28;20029;-91
2024/01/12 03:33:00;;;;;;;0.00;0.00;;;;;;;;;;5026941;28;20453;-89
2024/01/12 03:35:25;;;;;;;0.00;0.00;;;;;;;;;;5041866;28;20036;-90
2024/01/12 03:37:51;;;;;;;0.00;0.00;;;;;;;;;;5028584;28;20082;-90
2024/01/12 03:40:17;;;;;;;0.00;0.00;;;;;;;;;;5011183;28;20032;-91
2024/01/12 03:42:42;;;;;;;0.00;0.00;;;;;;;;;;5031659;28;20084;-89
2024/01/12 03:45:09;;;;;;;0.00;0.00;;;;;;;;;;5029950;28;20037;-91
2024/01/12 03:47:35;;;;;;;0.00;0.00;;;;;;;;;;5058872;28;20061;-90
2024/01/12 03:50:01;;;;;;;0.00;0.00;;;;;;;;;;5039441;28;20083;-90
2024/01/12 03:52:26;;;;;;;0.00;0.00;;;;;;;;;;5055072;28;20029;-90
2024/01/12 03:54:52;;;;;;;0.00;0.00;;;;;;;;;;5033530;28;20009;-90
2024/01/12 03:57:17;;;;;;;0.00;0.00;;;;;;;;;;5028494;28;20025;-89
2024/01/12 03:59:44;;;;;;;0.00;0.00;;;;;;;;;;5039845;28;20025;-90
2024/01/12 04:02:09;;;;;;;0.00;0.00;;;;;;;;;;5052054;28;20036;-91
2024/01/12 04:04:35;;;;;;;0.00;0.00;;;;;;;;;;5048219;28;20029;-91
2024/01/12 04:07:00;;;;;;;0.00;0.00;;;;;;;;;;5016039;28;20174;-92
2024/01/12 04:09:26;;;;;;;0.00;0.00;;;;;;;;;;5028691;28;20096;-91
2024/01/12 04:11:51;;;;;;;0.00;0.00;;;;;;;;;;5051002;28;20092;-91
2024/01/12 04:14:17;;;;;;;0.00;0.00;;;;;;;;;;5068812;28;20119;-91
2024/01/12 04:16:42;;;;;;;0.00;0.00;;;;;;;;;;5067905;28;20088;-90
2024/01/12 04:19:08;;;;;;;0.00;0.00;;;;;;;;;;5016268;28;20041;-87
2024/01/12 04:21:34;;;;;;;0.00;0.00;;;;;;;;;;5034990;28;20028;-91
2024/01/12 04:24:00;;;;;;;0.00;0.00;;;;;;;;;;5036841;28;20480;-90
2024/01/12 04:26:25;;;;;;;0.00;0.00;;;;;;;;;;5031058;28;20021;-91
2024/01/12 04:28:51;;;;;;;0.00;0.00;;;;;;;;;;5030743;28;20055;-89
2024/01/12 04:31:16;;;;;;;0.00;0.00;;;;;;;;;;5013811;28;20459;-89
2024/01/12 04:33:42;;;;;;;0.00;0.00;;;;;;;;;;5044236;28;20025;-91
2024/01/12 04:36:07;;;;;;;0.00;0.00;;;;;;;;;;5025598;28;20037;-91
2024/01/12 04:38:33;;;;;;;0.00;0.00;;;;;;;;;;5028983;28;20079;-90
2024/01/12 04:40:59;;;;;;;0.00;0.00;;;;;;;;;;5013887;28;20029;-91
2024/01/12 04:43:24;;;;;;;0.00;0.00;;;;;;;;;;5068856;28;20089;-91
2024/01/12 04:45:50;;;;;;;0.00;0.00;;;;;;;;;;5030524;28;20024;-90
2024/01/12 04:48:15;;;;;;;0.00;0.00;;;;;;;;;;5016957;28;20040;-89
2024/01/12 04:50:41;;;;;;;0.00;0.00;;;;;;;;;;5040791;28;20029;-89
2024/01/12 04:53:06;;;;;;;0.00;0.00;;;;;;;;;;5058556;28;20032;-90
2024/01/12 04:55:32;;;;;;;0.00;0.00;;;;;;;;;;5041507;28;20021;-89
2024/01/12 04:57:57;;;;;;;0.00;0.00;;;;;;;;;;5041065;28;20021;-86
2024/01/12 05:00:23;;;;;;;0.00;0.00;;;;;;;;;;5059984;28;20025;-86
2024/01/12 05:02:48;;;;;;;0.00;0.00;;;;;;;;;;5060078;28;20044;-87
2024/01/12 05:05:14;;;;;;;0.00;0.00;;;;;;;;;;5043395;28;20035;-90
2024/01/12 05:07:40;;;;;;;0.00;0.00;;;;;;;;;;5060038;28;20072;-89
2024/01/12 05:10:06;;;;;;;0.00;0.00;;;;;;;;;;5023548;28;20037;-90
2024/01/12 05:12:32;;;;;;;0.00;0.00;;;;;;;;;;5020430;28;20040;-93
2024/01/12 05:14:58;;;;;;;0.00;0.00;;;;;;;;;;5016705;28;20033;-92
2024/01/12 05:17:24;;;;;;;0.00;0.00;;;;;;;;;;5000853;28;20029;-91
2024/01/12 05:19:49;;;;;;;0.00;0.00;;;;;;;;;;5018221;28;20029;-92
2024/01/12 05:22:15;;;;;;;0.00;0.00;;;;;;;;;;5051559;28;20403;-92
2024/01/12 05:24:40;;;;;;;0.00;0.00;;;;;;;;;;5036288;28;20036;-92
2024/01/12 05:27:06;;;;;;;0.17;0.00;;;;;;;;;;5002950;28;20084;-93
2024/01/12 05:29:31;;;;;;;0.00;0.00;;;;;;;;;;5036781;28;20087;-90
2024/01/12 05:31:57;;;;;;;0.00;0.00;;;;;;;;;;5021001;28;20060;-91
2024/01/12 05:34:22;;;;;;;0.00;0.00;;;;;;;;;;5003445;28;20497;-93
2024/01/12 05:36:48;;;;;;;0.00;0.00;;;;;;;;;;5025859;28;20029;-91
2024/01/12 05:39:14;;;;;;;0.00;0.00;;;;;;;;;;5059075;28;20026;-90
2024/01/12 05:41:40;;;;;;;0.00;0.00;;;;;;;;;;5009532;28;20034;-90
2024/01/12 05:44:07;;;;;;;0.00;0.00;;;;;;;;;;5008694;28;20072;-91
2024/01/12 05:46:33;;;;;;;0.00;0.00;;;;;;;;;;5030177;28;20084;-92
2024/01/12 05:49:00;;;;;;;0.00;0.00;;;;;;;;;;5029246;28;20045;-90
2024/01/12 05:51:31;;;;;;;0.00;0.00;;;;;;;;;;5010181;28;20161;-91
2024/01/12 05:53:57;;;;;;;0.00;0.00;;;;;;;;;;5039856;28;20052;-92
2024/01/12 05:56:26;;;;;;;0.00;0.00;;;;;;;;;;5040047;28;20041;-93
2024/01/12 05:58:52;;;;;;;0.00;0.00;;;;;;;;;;5047678;28;20037;-91
2024/01/12 06:01:17;;;;;;;0.00;0.00;;;;;;;;;;5058654;28;20443;-89
2024/01/12 06:03:48;;;;;;;0.00;0.00;;;;;;;;;;5027824;28;20114;-90
2024/01/12 06:06:25;;;;;;;0.00;0.00;;;;;;;;;;5050322;28;20037;-89
2024/01/12 06:08:59;;;;;;;0.00;0.00;;;;;;;;;;5039945;28;20109;-90
2024/01/12 06:11:28;;;;;;;0.00;0.00;;;;;;;;;;5015326;28;20045;-92
2024/01/12 06:14:00;;;;;;;0.00;0.00;;;;;;;;;;5015358;28;20021;-90
2024/01/12 06:16:26;;;;;;;0.00;0.00;;;;;;;;;;4995792;28;20061;-94
2024/01/12 06:18:58;;;;;;;0.00;0.00;;;;;;;;;;5031271;28;20021;-91
2024/01/12 06:21:32;;;;;;;0.00;0.00;;;;;;;;;;5037287;28;20022;-92
2024/01/12 06:23:58;;;;;;;0.00;0.00;;;;;;;;;;5019600;28;20021;-92
2024/01/12 06:26:25;;;;;;;0.00;0.00;;;;;;;;;;5037413;28;20584;-93
2024/01/12 06:28:50;;;;;;;0.00;0.00;;;;;;;;;;5050405;28;20079;-92
2024/01/12 06:31:22;;;;;;;0.00;0.00;;;;;;;;;;5050953;28;20044;-93
2024/01/12 06:33:50;;;;;;;0.00;0.00;;;;;;;;;;5053397;28;20036;-91
2024/01/12 06:36:15;;;;;;;0.00;0.00;;;;;;;;;;5054903;28;20045;-93
2024/01/12 06:38:42;;;;;;;0.00;0.00;;;;;;;;;;5016314;28;20037;-93
2024/01/12 06:41:08;;;;;;;0.00;0.00;;;;;;;;;;5025546;28;20037;-93
2024/01/12 06:43:34;;;;;;;0.00;0.00;;;;;;;;;;5006015;28;20025;-91
2024/01/12 06:46:00;;;;;;;0.00;0.00;;;;;;;;;;5004587;28;20075;-90
2024/01/12 06:48:26;;;;;;;0.00;0.00;;;;;;;;;;5004441;28;20029;-91
2024/01/12 06:50:53;;;;;;;0.00;0.00;;;;;;;;;;5013802;28;20037;-89
2024/01/12 06:53:30;;;;;;;0.00;0.00;;;;;;;;;;5021015;28;20021;-92
2024/01/12 06:56:08;;;;;;;0.00;0.00;;;;;;;;;;5041061;28;20042;-92
2024/01/12 06:59:05;;;;;;;0.00;0.00;;;;;;;;;;4999008;28;20053;-82
2024/01/12 07:01:31;;;;;;;0.00;0.00;;;;;;;;;;5038448;28;20065;-84
2024/01/12 07:04:02;;;;;;;0.00;0.00;;;;;;;;;;5012938;28;20055;-85
2024/01/12 07:06:29;;;;;;;0.00;0.00;;;;;;;;;;5016851;28;20041;-85
2024/01/12 07:08:57;;;;;;;0.00;0.00;;;;;;;;;;5008599;28;20124;-84
2024/01/12 07:11:24;;;;;;;0.00;0.00;;;;;;;;;;5034968;28;20107;-85
2024/01/12 07:13:55;;;;;;;0.00;0.00;;;;;;;;;;5050164;28;20119;-86
2024/01/12 07:16:20;;;;;;;0.00;0.00;;;;;;;;;;5033024;28;20060;-87
2024/01/12 07:18:49;;;;;;;0.00;0.00;;;;;;;;;;5014483;28;20401;-87
2024/01/12 07:21:14;;;;;;;0.00;0.00;;;;;;;;;;5013138;28;20041;-85
2024/01/12 07:23:49;;;;;;;0.00;0.00;;;;;;;;;;5012214;28;20033;-84
2024/01/12 07:26:37;;;;;;;0.00;0.00;;;;;;;;;;5012817;28;20026;-89
2024/01/12 07:29:02;;;;;;;0.00;0.00;;;;;;;;;;4997247;28;20458;-86
2024/01/12 07:31:38;;;;;;;;;;;;;;;;;;;;;
2024/01/12 07:37:22;;;;;;;0.00;0.00;;;;;;;;;;5097901;22;20127;-84
2024/01/12 07:39:51;;;;;;;0.00;0.00;;;;;;;;;;5046077;28;20493;-88
2024/01/12 07:42:17;;;;;;;0.00;0.00;;;;;;;;;;5080291;28;20039;-88
2024/01/12 07:47:33;;;;;;;0.00;0.00;;;;;;;;;;5350835;22;20051;-90
2024/01/12 07:49:59;;;;;;;0.00;0.00;;;;;;;;;;5081638;28;20055;-87
2024/01/12 07:52:24;;;;;;;0.00;0.00;;;;;;;;;;5066169;28;20032;-84
2024/01/12 07:54:59;;;;;;;0.00;0.00;;;;;;;;;;5096745;28;20392;-82
2024/01/12 07:57:31;;;;;;;0.00;0.00;;;;;;;;;;5098991;28;20417;-81
2024/01/12 08:00:10;;;;;;;0.00;0.00;;;;;;;;;;5064574;28;20122;-88
2024/01/12 08:03:19;;;;;;;0.00;0.00;;;;;;;;;;5077039;28;20097;-88
2024/01/12 08:05:45;;;;;;;0.00;0.00;;;;;;;;;;5091776;28;20066;-87
2024/01/12 08:08:10;;;;;;;0.00;0.00;;;;;;;;;;5066028;28;20031;-89
2024/01/12 08:10:38;;;;;;;0.00;0.00;;;;;;;;;;5057898;28;20071;-86
2024/01/12 08:16:11;;;;;;;0.00;0.00;;;;;;;;;;5096991;22;20060;-81
2024/01/12 08:18:37;;;;;;;;;;;;;;;;;;5089058;28;20422;-81
2024/01/12 08:21:03;;;;;;;0.00;0.00;;;;;;;;;;5081468;28;20329;-86
2024/01/12 08:23:28;;;;;;;0.00;0.00;;;;;;;;;;5099709;22;20141;-83
2024/01/12 08:26:13;;;;;;;0.00;0.00;;;;;;;;;;5039318;28;20454;-85
2024/01/12 08:28:39;;;;;;;0.00;0.00;;;;;;;;;;5026578;28;20040;-87
2024/01/12 08:31:05;;;;;;;0.00;0.00;;;;;;;;;;5049419;28;20036;-89
2024/01/12 08:33:33;;;;;;;0.00;0.00;;;;;;;;;;5049159;28;20085;-86
2024/01/12 08:35:59;;;;;;;0.00;0.00;;;;;;;;;;5048555;28;20040;-85
2024/01/12 08:38:24;;;;;;;0.00;0.00;;;;;;;;;;5038473;28;20179;-88
2024/01/12 08:40:50;;;;;;;0.00;0.00;;;;;;;;;;5029102;28;20372;-87
2024/01/12 08:43:17;;;;;;;0.00;0.00;;;;;;;;;;5028437;28;20022;-88
2024/01/12 08:45:43;;;;;;;0.00;0.00;;;;;;;;;;5030109;28;20024;-88
2024/01/12 08:48:08;;;;;;;0.00;0.00;;;;;;;;;;5028382;28;20120;-88
2024/01/12 08:50:35;;;;;;;0.00;0.00;;;;;;;;;;5029767;28;20021;-87
2024/01/12 08:53:01;;;;;;;0.00;0.00;;;;;;;;;;5040116;28;20447;-88
2024/01/12 08:55:26;;;;;;;0.00;0.00;;;;;;;;;;5048055;28;20237;-87
2024/01/12 08:57:52;;;;;;;0.00;0.00;;;;;;;;;;5048723;28;20107;-88
2024/01/12 09:00:18;;;;;;;0.00;0.00;;;;;;;;;;5051760;28;20441;-88
2024/01/12 09:02:43;;;;;;;0.00;0.00;;;;;;;;;;5014074;28;20228;-85
2024/01/12 09:05:10;;;;;;;0.00;0.00;;;;;;;;;;5039951;28;20365;-83
2024/01/12 09:07:38;;;;;;;0.00;0.00;;;;;;;;;;5058115;28;20025;-91
2024/01/12 09:10:06;;;;;;;0.00;0.00;;;;;;;;;;5061472;28;20055;-90
2024/01/12 09:15:51;;;;;;;0.00;0.00;;;;;;;;;;5450125;22;20078;-92
2024/01/12 09:18:17;;;;;;;0.00;0.00;;;;;;;;;;5068681;28;20111;-85
2024/01/12 09:20:46;;;;;;;0.00;0.00;;;;;;;;;;5060405;28;20568;-85
2024/01/12 09:23:11;;;;;;;0.00;0.00;;;;;;;;;;5065345;28;20040;-89
2024/01/12 09:25:37;;;;;;;0.00;0.00;;;;;;;;;;5055962;28;20029;-89
2024/01/12 09:28:24;;;;;;;0.00;0.00;;;;;;;;;;5035049;28;20047;-83
2024/01/12 09:30:49;;;;;;;0.00;0.00;;;;;;;;;;5037742;28;20036;-92
2024/01/12 09:33:15;;;;;;;0.00;0.00;;;;;;;;;;5037827;28;20468;-92
2024/01/12 09:35:41;;;;;;;0.00;0.00;;;;;;;;;;5043268;28;20028;-85
2024/01/12 09:38:07;;;;;;;0.00;0.00;;;;;;;;;;5075706;28;20033;-90
2024/01/12 09:40:58;;;;;;;;;;;;;;;;;;;;;
2024/01/12 09:43:24;;;;;;;0.00;0.00;;;;;;;;;;5075324;28;20024;-87
2024/01/12 09:45:52;;;;;;;0.00;0.00;;;;;;;;;;5070382;28;20060;-89
2024/01/12 09:48:18;;;;;;;0.00;0.00;;;;;;;;;;5061444;28;20044;-89
2024/01/12 09:50:44;;;;;;;0.00;0.00;;;;;;;;;;5078402;28;20058;-90
2024/01/12 09:53:10;;;;;;;0.00;0.00;;;;;;;;;;5070950;28;20028;-90
2024/01/12 09:55:36;;;;;;;0.00;0.00;;;;;;;;;;5062509;28;20204;-85
2024/01/12 09:58:01;;;;;;;0.00;0.00;;;;;;;;;;5076819;28;20451;-85
2024/01/12 10:00:28;;;;;;;0.00;0.00;;;;;;;;;;5076000;28;20024;-84
2024/01/12 10:02:55;;;;;;;0.00;0.00;;;;;;;;;;5074927;28;20024;-81
2024/01/12 10:05:21;;;;;;;0.00;0.00;;;;;;;;;;5065992;28;20028;-83
2024/01/12 10:07:48;;;;;;;0.00;0.00;;;;;;;;;;5075428;28;20028;-82
2024/01/12 10:10:14;;;;;;;0.00;0.00;;;;;;;;;;5055871;28;20123;-82
2024/01/12 10:12:39;;;;;;;0.00;0.00;;;;;;;;;;5074705;28;20107;-81
2024/01/12 10:15:12;;;;;;;0.00;0.00;;;;;;;;;;5074585;28;20082;-82
2024/01/12 10:17:37;;;;;;;0.00;0.00;;;;;;;;;;5073217;28;20052;-83
2024/01/12 10:20:07;;;;;;;0.00;0.00;;;;;;;;;;5074214;28;20117;-82
2024/01/12 10:22:32;;;;;;;0.00;0.00;;;;;;;;;;5057783;28;20036;-83
2024/01/12 10:25:03;;;;;;;0.00;0.00;;;;;;;;;;5073585;28;20097;-84
2024/01/12 10:27:29;;;;;;;0.00;0.00;;;;;;;;;;5057446;28;20052;-82
2024/01/12 10:29:56;;;;;;;0.00;0.00;;;;;;;;;;5075115;28;20119;-82
2024/01/12 10:32:33;;;;;;;0.00;0.00;;;;;;;;;;5073544;28;20038;-87
2024/01/12 10:34:58;;;;;;;0.00;0.00;;;;;;;;;;5067449;22;20069;-83
2024/01/12 10:37:40;;;;;;;0.00;0.00;;;;;;;;;;5060779;28;20108;-83
2024/01/12 10:40:12;;;;;;;0.00;0.00;;;;;;;;;;5108204;22;20052;-91
2024/01/12 10:42:40;;;;;;;0.00;0.00;;;;;;;;;;5068176;28;20457;-91
2024/01/12 10:45:07;;;;;;;0.00;0.00;;;;;;;;;;5046934;28;20377;-87
2024/01/12 10:47:34;;;;;;;0.00;0.00;;;;;;;;;;5026375;28;20034;-92
2024/01/12 10:50:04;;;;;;;0.00;0.00;;;;;;;;;;5027052;28;20037;-92
2024/01/12 10:52:57;;;;;;;0.00;0.00;;;;;;;;;;5029618;28;20029;-91
2024/01/12 10:55:23;;;;;;;0.00;0.00;;;;;;;;;;5047643;28;20043;-85
2024/01/12 10:57:49;;;;;;;0.00;0.00;;;;;;;;;;5069558;28;20028;-87
2024/01/12 11:00:24;;;;;;;0.00;0.00;;;;;;;;;;5053924;28;20032;-84
2024/01/12 11:02:49;;;;;;;0.00;0.00;;;;;;;;;;5050318;28;20033;-81
2024/01/12 11:05:15;;;;;;;0.00;0.00;;;;;;;;;;5051032;28;20123;-84
2024/01/12 11:07:42;;;;;;;0.00;0.00;;;;;;;;;;5050232;28;20064;-82
2024/01/12 11:10:08;;;;;;;0.00;0.00;;;;;;;;;;5035645;28;20056;-80
2024/01/12 11:12:35;;;;;;;0.00;0.00;;;;;;;;;;5052739;28;20040;-82
2024/01/12 11:15:01;;;;;;;0.00;0.00;;;;;;;;;;5053452;28;20029;-81
2024/01/12 11:17:35;;;;;;;0.00;0.00;;;;;;;;;;5055200;28;20025;-82
2024/01/12 11:20:10;;;;;;;0.00;0.00;;;;;;;;;;5020643;28;20048;-79
2024/01/12 11:22:44;;;;;;;0.00;0.00;;;;;;;;;;5054007;28;20033;-87
2024/01/12 11:25:11;;;;;;;0.00;0.00;;;;;;;;;;5053023;28;20126;-82
2024/01/12 11:27:41;;;;;;;0.00;0.00;;;;;;;;;;5036229;28;20558;-82
2024/01/12 11:30:08;;;;;;;0.00;0.00;;;;;;;;;;5032999;28;20065;-84
2024/01/12 11:32:33;;;;;;;0.00;0.00;;;;;;;;;;5033553;28;20068;-82
2024/01/12 11:35:19;;;;;;;0.00;0.00;;;;;;;;;;5032035;28;20057;-82
2024/01/12 11:38:01;;;;;;;0.00;0.00;;;;;;;;;;5048226;28;20032;-85
2024/01/12 11:40:27;;;;;;;0.00;0.00;;;;;;;;;;5053074;28;20048;-85
2024/01/12 11:42:53;;;;;;;0.00;0.00;;;;;;;;;;5050945;28;20322;-84
2024/01/12 11:45:18;;;;;;;0.00;0.00;;;;;;;;;;5050155;28;20032;-84
2024/01/12 11:47:44;;;;;;;0.00;0.00;;;;;;;;;;5047917;28;20021;-84
2024/01/12 11:50:24;;;;;;;0.00;0.00;;;;;;;;;;5040025;28;20021;-82
2024/01/12 11:53:00;;;;;;;0.00;0.00;;;;;;;;;;5074341;28;20032;-83
2024/01/12 11:55:25;;;;;;;0.00;0.00;;;;;;;;;;5073262;28;20021;-83
2024/01/12 11:57:53;;;;;;;0.00;0.00;;;;;;;;;;5070494;28;20075;-84
2024/01/12 12:00:19;;;;;;;0.00;0.00;;;;;;;;;;5037497;28;20032;-84
2024/01/12 12:02:45;;;;;;;0.00;0.00;;;;;;;;;;5051923;28;20036;-82
2024/01/12 12:05:11;;;;;;;0.00;0.00;;;;;;;;;;5051060;28;20393;-82
2024/01/12 12:07:37;;;;;;;0.00;0.00;;;;;;;;;;5050866;28;20029;-80
2024/01/12 12:10:05;;;;;;;0.00;0.00;;;;;;;;;;5035569;28;20346;-80
2024/01/12 12:12:30;;;;;;;0.00;0.00;;;;;;;;;;5052071;28;20403;-81
2024/01/12 12:15:06;;;;;;;0.00;0.00;;;;;;;;;;5051646;28;20113;-78
2024/01/12 12:17:34;;;;;;;0.00;0.00;;;;;;;;;;5049183;28;20033;-82
2024/01/12 12:19:59;;;;;;;0.00;0.00;;;;;;;;;;5051272;28;20435;-81
2024/01/12 12:22:25;;;;;;;0.00;0.00;;;;;;;;;;5034248;28;20039;-82
2024/01/12 12:24:51;;;;;;;0.00;0.00;;;;;;;;;;5050720;28;20029;-81
2024/01/12 12:27:17;;;;;;;0.00;0.00;;;;;;;;;;5034411;28;20037;-81
2024/01/12 12:29:45;;;;;;;0.00;0.00;;;;;;;;;;5050967;28;20101;-81
2024/01/12 12:32:14;;;;;;;0.00;0.00;;;;;;;;;;5036481;28;20123;-82
2024/01/12 12:34:40;;;;;;;0.00;0.00;;;;;;;;;;5059493;28;20028;-83
2024/01/12 12:37:09;;;;;;;0.00;0.00;;;;;;;;;;5069662;28;20025;-81
2024/01/12 12:39:37;;;;;;;0.00;0.00;;;;;;;;;;5052902;28;20025;-81
2024/01/12 12:42:04;;;;;;;0.00;0.00;;;;;;;;;;5059401;28;20031;-82
2024/01/12 12:44:31;;;;;;;0.00;0.00;;;;;;;;;;5076476;28;20024;-81
2024/01/12 12:46:57;;;;;;;0.00;0.00;;;;;;;;;;5077574;28;20473;-82
2024/01/12 12:49:30;;;;;;;0.00;0.00;;;;;;;;;;5096626;28;20051;-83
2024/01/12 12:51:56;;;;;;;0.00;0.00;;;;;;;;;;5088566;28;20035;-86
2024/01/12 12:54:22;;;;;;;0.00;0.00;;;;;;;;;;5073678;28;20028;-87
2024/01/12 12:56:47;;;;;;;0.00;0.00;;;;;;;;;;5070318;28;20107;-84
2024/01/12 12:59:13;;;;;;;0.00;0.00;;;;;;;;;;5089656;28;20372;-85
2024/01/12 13:01:38;;;;;;;0.00;0.00;;;;;;;;;;5089160;28;20036;-84
2024/01/12 13:04:04;;;;;;;0.00;0.00;;;;;;;;;;5089252;28;20028;-85
2024/01/12 13:06:32;;;;;;;0.00;0.00;;;;;;;;;;5089581;28;20184;-84
2024/01/12 13:08:58;;;;;;;0.00;0.00;;;;;;;;;;5073996;28;20114;-84
2024/01/12 13:11:23;;;;;;;0.00;0.00;;;;;;;;;;5078018;28;20159;-84
2024/01/12 13:13:48;;;;;;;0.00;0.00;;;;;;;;;;5078856;28;20023;-85
2024/01/12 13:16:14;;;;;;;0.00;0.00;;;;;;;;;;5082612;28;20034;-84
2024/01/12 13:18:40;;;;;;;0.00;0.00;;;;;;;;;;5082916;28;20151;-84
2024/01/12 13:21:05;;;;;;;0.00;0.00;;;;;;;;;;5099417;28;20096;-84
2024/01/12 13:23:34;;;;;;;0.00;0.00;;;;;;;;;;5056610;28;20024;-84
2024/01/12 13:26:00;;;;;;;0.00;0.00;;;;;;;;;;5047035;28;20032;-84
2024/01/12 13:28:27;;;;;;;0.00;0.00;;;;;;;;;;5046207;28;20430;-85
2024/01/12 13:30:53;;;;;;;0.00;0.00;;;;;;;;;;5065941;28;20034;-85
2024/01/12 13:33:18;;;;;;;0.00;0.00;;;;;;;;;;5062044;28;20053;-85
2024/01/12 13:35:44;;;;;;;0.00;0.00;;;;;;;;;;5083469;28;20032;-85
2024/01/12 13:38:10;;;;;;;0.00;0.00;;;;;;;;;;5096004;28;20024;-85
2024/01/12 13:40:37;;;;;;;0.00;0.00;;;;;;;;;;5095619;28;20081;-85
2024/01/12 13:43:03;;;;;;;0.00;0.00;;;;;;;;;;5079055;28;20024;-85
2024/01/12 13:45:28;;;;;;;0.00;0.00;;;;;;;;;;5095806;28;20035;-86
2024/01/12 13:47:55;;;;;;;0.00;0.00;;;;;;;;;;5078965;28;20028;-85
2024/01/12 13:50:21;;;;;;;0.00;0.00;;;;;;;;;;5096349;28;20032;-85
2024/01/12 13:52:47;;;;;;;0.00;0.00;;;;;;;;;;5095452;28;20024;-85
2024/01/12 13:55:12;;;;;;;0.00;0.00;;;;;;;;;;5061434;28;20036;-85
2024/01/12 13:57:38;;;;;;;0.00;0.00;;;;;;;;;;5078911;28;20055;-86
2024/01/12 14:00:06;;;;;;;0.00;0.00;;;;;;;;;;5097041;28;20457;-86
2024/01/12 14:02:32;;;;;;;0.00;0.00;;;;;;;;;;5087898;28;20032;-86
2024/01/12 14:04:58;;;;;;;0.00;0.00;;;;;;;;;;5078617;28;20131;-86
2024/01/12 14:07:23;;;;;;;0.00;0.00;;;;;;;;;;5045524;28;20406;-85
2024/01/12 14:09:49;;;;;;;0.00;0.00;;;;;;;;;;5061647;28;20032;-86
2024/01/12 14:12:14;;;;;;;0.00;0.00;;;;;;;;;;5061735;28;20036;-86
2024/01/12 14:14:40;;;;;;;0.00;0.00;;;;;;;;;;5061761;28;20034;-86
2024/01/12 14:17:06;;;;;;;0.00;0.00;;;;;;;;;;5061283;28;20032;-86
2024/01/12 14:19:31;;;;;;;0.00;0.00;;;;;;;;;;5078394;28;20024;-86
2024/01/12 14:21:57;;;;;;;0.00;0.00;;;;;;;;;;5048875;28;20043;-86
2024/01/12 14:24:22;;;;;;;0.00;0.00;;;;;;;;;;5060941;28;20040;-86
2024/01/12 14:26:48;;;;;;;0.00;0.00;;;;;;;;;;5109110;28;20297;-86
2024/01/12 14:29:13;;;;;;;0.00;0.00;;;;;;;;;;5079132;28;20038;-87
2024/01/12 14:31:39;;;;;;;0.00;0.00;;;;;;;;;;5078444;28;20032;-86
2024/01/12 14:34:05;;;;;;;0.00;0.00;;;;;;;;;;5077988;28;20035;-87
2024/01/12 14:36:31;;;;;;;0.00;0.00;;;;;;;;;;5096596;28;20426;-87
2024/01/12 14:38:56;;;;;;;0.00;0.00;;;;;;;;;;5061638;28;20032;-87
2024/01/12 14:41:22;;;;;;;0.00;0.00;;;;;;;;;;5077698;28;20048;-87
2024/01/12 14:43:47;;;;;;;0.00;0.00;;;;;;;;;;5061459;28;20024;-87
2024/01/12 14:46:13;;;;;;;0.00;0.00;;;;;;;;;;5061139;28;20038;-87
2024/01/12 14:48:38;;;;;;;0.00;0.00;;;;;;;;;;5077988;28;20362;-87
2024/01/12 14:51:04;;;;;;;0.00;0.00;;;;;;;;;;5077747;28;20199;-86
2024/01/12 14:53:35;;;;;;;0.00;0.00;;;;;;;;;;5061403;28;20042;-87
2024/01/12 14:56:00;;;;;;;;;;;;;;;;;;5078100;28;20028;-87
2024/01/12 14:58:26;;;;;;;0.00;0.00;;;;;;;;;;5091957;28;19912;-87